createdAt,value
2018-01-16T17:05:01.560Z,91.70
2018-01-16T17:07:29.123Z,91.60
2018-01-16T17:09:57.421Z,90.80
2018-01-16T17:12:25.017Z,90.70
2018-01-16T17:14:52.535Z,90.50
2018-01-16T17:17:20.064Z,90.20
2018-01-16T17:19:47.843Z,91.00
2018-01-16T17:22:15.405Z,91.00
2018-01-16T17:24:42.934Z,91.00
2018-01-16T17:27:10.694Z,90.80
2018-01-16T17:29:38.313Z,91.20
2018-01-16T17:32:05.876Z,90.80
2018-01-16T17:34:33.617Z,91.40
2018-01-16T17:37:01.223Z,90.70
2018-01-16T17:39:28.776Z,90.60
2018-01-16T17:41:56.608Z,90.40
2018-01-16T17:44:24.923Z,90.20
2018-01-16T17:46:52.496Z,90.20
2018-01-16T17:49:20.853Z,90.30
2018-01-16T17:51:49.155Z,90.30
2018-01-16T17:54:16.695Z,90.20
2018-01-16T17:56:44.598Z,90.00
2018-01-16T17:59:12.898Z,90.70
2018-01-16T18:01:40.460Z,90.60
2018-01-16T18:04:08.009Z,90.30
2018-01-16T18:06:35.783Z,90.20
2018-01-16T18:09:03.340Z,90.20
2018-01-16T18:11:31.313Z,90.50
2018-01-16T18:13:59.556Z,90.40
2018-01-16T18:16:27.079Z,90.40
2018-01-16T18:18:54.569Z,90.70
2018-01-16T18:21:22.970Z,90.60
2018-01-16T18:23:50.555Z,90.50
2018-01-16T18:26:18.829Z,91.10
2018-01-16T18:28:47.115Z,90.80
2018-01-16T18:31:14.684Z,90.80
2018-01-16T18:33:42.247Z,91.10
2018-01-16T18:36:09.781Z,91.20
2018-01-16T18:38:37.319Z,91.40
2018-01-16T18:41:05.136Z,91.40
2018-01-16T18:43:32.693Z,91.50
2018-01-16T18:46:00.265Z,91.70
2018-01-16T18:48:27.824Z,91.70
2018-01-16T18:50:55.396Z,91.80
2018-01-16T18:53:23.714Z,91.90
2018-01-16T18:55:51.431Z,91.90
2018-01-16T18:58:18.985Z,92.00
2018-01-16T19:00:46.572Z,91.70
2018-01-16T19:03:14.973Z,91.90
2018-01-16T19:05:42.515Z,91.90
2018-01-16T19:08:10.127Z,91.90
2018-01-16T19:10:38.504Z,91.90
2018-01-16T19:13:06.928Z,92.00
2018-01-16T19:15:34.488Z,92.00
2018-01-16T19:18:02.459Z,91.50
2018-01-16T19:20:31.023Z,91.60
2018-01-16T19:22:58.719Z,91.60
2018-01-16T19:25:26.737Z,91.60
2018-01-16T19:27:54.332Z,91.60
2018-01-16T19:30:21.867Z,92.20
2018-01-16T19:32:49.531Z,92.50
2018-01-16T19:35:17.096Z,92.60
2018-01-16T19:37:45.394Z,93.20
2018-01-16T19:40:12.935Z,93.30
2018-01-16T19:42:40.499Z,93.10
2018-01-16T19:45:08.023Z,92.00
2018-01-16T19:47:35.608Z,92.00
2018-01-16T19:50:03.208Z,92.10
2018-01-16T19:52:30.738Z,91.90
2018-01-16T19:54:58.417Z,92.00
2018-01-16T19:57:25.976Z,91.60
2018-01-16T19:59:53.527Z,91.30
2018-01-16T20:02:21.271Z,90.50
2018-01-16T20:04:48.836Z,90.50
2018-01-16T20:07:16.408Z,90.30
2018-01-16T20:09:45.268Z,90.30
2018-01-16T20:12:13.563Z,90.60
2018-01-16T20:14:41.126Z,90.60
2018-01-16T20:17:08.895Z,90.60
2018-01-16T20:19:36.439Z,90.20
2018-01-16T20:22:04.004Z,90.10
2018-01-16T20:24:32.539Z,88.50
2018-01-16T20:27:00.066Z,88.50
2018-01-16T20:29:27.740Z,87.70
2018-01-16T20:31:55.341Z,87.70
2018-01-16T20:34:22.850Z,87.20
2018-01-16T20:36:50.341Z,87.70
2018-01-16T20:39:17.888Z,88.30
2018-01-16T20:41:45.636Z,86.40
2018-01-16T20:44:13.179Z,86.50
2018-01-16T20:46:40.731Z,86.50
2018-01-16T20:49:08.300Z,86.50
2018-01-16T20:51:35.827Z,86.50
2018-01-16T20:54:03.420Z,86.60
2018-01-16T20:56:30.983Z,85.30
2018-01-16T20:58:58.509Z,85.20
2018-01-16T21:01:26.108Z,85.20
2018-01-16T21:03:53.582Z,85.90
2018-01-16T21:06:21.913Z,86.00
2018-01-16T21:08:49.524Z,85.90
2018-01-16T21:11:17.256Z,85.80
2018-01-16T21:13:44.820Z,85.80
2018-01-16T21:16:12.694Z,86.30
2018-01-16T21:18:40.261Z,86.40
2018-01-16T21:21:07.787Z,85.90
2018-01-16T21:23:35.401Z,85.70
2018-01-16T21:26:02.997Z,85.30
2018-01-16T21:28:30.526Z,85.60
2018-01-16T21:30:58.096Z,86.90
2018-01-16T21:33:26.438Z,88.90
2018-01-16T21:35:53.963Z,88.90
2018-01-16T21:38:21.688Z,87.80
2018-01-16T21:40:49.252Z,89.40
2018-01-16T21:43:16.794Z,89.40
2018-01-16T21:45:44.592Z,89.30
2018-01-16T21:48:12.831Z,90.10
2018-01-16T21:50:40.393Z,90.10
2018-01-16T21:53:08.717Z,90.40
2018-01-16T21:55:36.243Z,90.40
2018-01-16T21:58:03.811Z,90.80
2018-01-16T22:00:31.585Z,90.70
2018-01-16T22:02:59.924Z,91.40
2018-01-16T22:05:27.471Z,91.40
2018-01-16T22:07:55.215Z,91.80
2018-01-16T22:10:22.744Z,91.90
2018-01-16T22:12:50.451Z,91.80
2018-01-16T22:15:18.390Z,91.90
2018-01-16T22:17:46.848Z,91.80
2018-01-16T22:20:15.240Z,91.50
2018-01-16T22:22:42.924Z,91.50
2018-01-16T22:25:10.450Z,90.60
2018-01-16T22:27:37.976Z,90.50
2018-01-16T22:30:05.704Z,90.60
2018-01-16T22:32:33.283Z,90.50
2018-01-16T22:35:00.816Z,90.90
2018-01-16T22:37:28.491Z,91.00
2018-01-16T22:39:55.965Z,91.10
2018-01-16T22:42:23.565Z,91.50
2018-01-16T22:44:51.160Z,91.30
2018-01-16T22:47:19.434Z,91.60
2018-01-16T22:49:47.784Z,91.40
2018-01-16T22:52:16.089Z,91.60
2018-01-16T22:54:43.648Z,91.70
2018-01-16T22:57:11.209Z,91.70
2018-01-16T22:59:38.804Z,91.50
2018-01-16T23:02:06.368Z,91.70
2018-01-16T23:04:33.895Z,91.70
2018-01-16T23:07:01.485Z,91.70
2018-01-16T23:09:29.056Z,91.70
2018-01-16T23:11:57.384Z,92.10
2018-01-16T23:14:25.231Z,92.10
2018-01-16T23:16:52.771Z,92.20
2018-01-16T23:19:20.303Z,92.30
2018-01-16T23:21:47.958Z,92.20
2018-01-16T23:24:15.568Z,92.00
2018-01-16T23:26:43.119Z,92.20
2018-01-16T23:29:10.687Z,92.40
2018-01-16T23:31:38.404Z,92.50
2018-01-16T23:34:05.934Z,92.70
2018-01-16T23:36:33.772Z,92.90
2018-01-16T23:39:02.066Z,92.80
2018-01-16T23:41:29.595Z,92.80
2018-01-16T23:43:57.147Z,92.90
2018-01-16T23:46:24.724Z,93.30
2018-01-16T23:48:52.253Z,93.50
2018-01-16T23:51:19.851Z,93.20
2018-01-16T23:53:48.157Z,93.10
2018-01-16T23:56:15.729Z,93.10
2018-01-16T23:58:43.347Z,92.90
